sensor_id;sensor_type;location;lat;lon;timestamp;pressure;altitude;pressure_sealevel;temperature;humidity
19112;BME280;9688;51.906;8.376;2024-01-30T00:02:32;101928.09;;;6.99;100.00
19112;BME280;9688;51.906;8.376;2024-01-30T00:05:18;101926.34;;;6.97;100.00
19112;BME280;9688;51.906;8.376;2024-01-30T00:08:05;101923.72;;;6.93;100.00
19112;BME280;9688;51.906;8.376;2024-01-30T00:11:22;101927.25;;;6.85;100.00
19112;BME280;9688;51.906;8.376;2024-01-30T00:14:09;101931.59;;;6.84;100.00
19112;BME280;9688;51.906;8.376;2024-01-30T00:16:56;101934.25;;;6.83;100.00
19112;BME280;9688;51.906;8.376;2024-01-30T00:19:42;101925.50;;;6.82;100.00
19112;BME280;9688;51.906;8.376;2024-01-30T00:22:27;101925.50;;;6.82;100.00
19112;BME280;9688;51.906;8.376;2024-01-30T00:29:14;101921.97;;;6.79;100.00
19112;BME280;9688;51.906;8.376;2024-01-30T00:32:03;101922.00;;;6.77;100.00
19112;BME280;9688;51.906;8.376;2024-01-30T00:34:49;101921.13;;;6.74;100.00
19112;BME280;9688;51.906;8.376;2024-01-30T00:37:35;101921.09;;;6.70;100.00
19112;BME280;9688;51.906;8.376;2024-01-30T00:40:21;101926.38;;;6.69;100.00
19112;BME280;9688;51.906;8.376;2024-01-30T00:43:06;101922.88;;;6.68;100.00
19112;BME280;9688;51.906;8.376;2024-01-30T00:45:53;101927.28;;;6.68;100.00
19112;BME280;9688;51.906;8.376;2024-01-30T00:48:38;101922.88;;;6.67;100.00
19112;BME280;9688;51.906;8.376;2024-01-30T00:51:24;101922.00;;;6.71;100.00
19112;BME280;9688;51.906;8.376;2024-01-30T00:54:09;101922.00;;;6.71;100.00
19112;BME280;9688;51.906;8.376;2024-01-30T00:56:54;101917.59;;;6.70;100.00
19112;BME280;9688;51.906;8.376;2024-01-30T00:59:40;101920.25;;;6.68;100.00
19112;BME280;9688;51.906;8.376;2024-01-30T01:02:27;101915.88;;;6.69;100.00
19112;BME280;9688;51.906;8.376;2024-01-30T01:05:12;101914.97;;;6.70;100.00
19112;BME280;9688;51.906;8.376;2024-01-30T01:07:58;101918.47;;;6.70;100.00
19112;BME280;9688;51.906;8.376;2024-01-30T01:10:43;101910.63;;;6.69;100.00
19112;BME280;9688;51.906;8.376;2024-01-30T01:13:28;101911.50;;;6.62;100.00
19112;BME280;9688;51.906;8.376;2024-01-30T01:16:13;101914.13;;;6.59;100.00
19112;BME280;9688;51.906;8.376;2024-01-30T01:19:00;101909.75;;;6.56;100.00
19112;BME280;9688;51.906;8.376;2024-01-30T01:21:45;101914.13;;;6.56;100.00
19112;BME280;9688;51.906;8.376;2024-01-30T01:24:31;101911.50;;;6.56;100.00
19112;BME280;9688;51.906;8.376;2024-01-30T01:27:16;101913.25;;;6.51;100.00
19112;BME280;9688;51.906;8.376;2024-01-30T01:30:02;101912.38;;;6.50;100.00
19112;BME280;9688;51.906;8.376;2024-01-30T01:32:49;101911.53;;;6.50;100.00
19112;BME280;9688;51.906;8.376;2024-01-30T01:35:40;101905.38;;;6.51;100.00
19112;BME280;9688;51.906;8.376;2024-01-30T01:38:25;101910.63;;;6.51;100.00
19112;BME280;9688;51.906;8.376;2024-01-30T01:41:10;101908.00;;;6.51;100.00
19112;BME280;9688;51.906;8.376;2024-01-30T01:43:55;101903.63;;;6.51;100.00
19112;BME280;9688;51.906;8.376;2024-01-30T01:46:41;101901.00;;;6.51;100.00
19112;BME280;9688;51.906;8.376;2024-01-30T01:49:27;101904.53;;;6.52;100.00
19112;BME280;9688;51.906;8.376;2024-01-30T01:52:14;101898.38;;;6.51;100.00
19112;BME280;9688;51.906;8.376;2024-01-30T01:55:00;101905.38;;;6.51;100.00
19112;BME280;9688;51.906;8.376;2024-01-30T01:57:45;101894.88;;;6.51;100.00
19112;BME280;9688;51.906;8.376;2024-01-30T02:00:30;101889.63;;;6.51;100.00
19112;BME280;9688;51.906;8.376;2024-01-30T02:03:18;101883.50;;;6.50;100.00
19112;BME280;9688;51.906;8.376;2024-01-30T02:06:05;101883.50;;;6.52;100.00
19112;BME280;9688;51.906;8.376;2024-01-30T02:08:52;101883.47;;;6.53;100.00
19112;BME280;9688;51.906;8.376;2024-01-30T02:11:38;101884.38;;;6.55;100.00
19112;BME280;9688;51.906;8.376;2024-01-30T02:14:25;101884.34;;;6.58;100.00
19112;BME280;9688;51.906;8.376;2024-01-30T02:17:10;101879.09;;;6.57;100.00
19112;BME280;9688;51.906;8.376;2024-01-30T02:19:55;101879.97;;;6.56;100.00
19112;BME280;9688;51.906;8.376;2024-01-30T02:22:42;101880.00;;;6.57;100.00
19112;BME280;9688;51.906;8.376;2024-01-30T02:25:32;101875.59;;;6.61;100.00
19112;BME280;9688;51.906;8.376;2024-01-30T02:28:19;101876.47;;;6.64;100.00
19112;BME280;9688;51.906;8.376;2024-01-30T02:31:04;101873.84;;;6.66;100.00
19112;BME280;9688;51.906;8.376;2024-01-30T02:33:50;101865.06;;;6.68;100.00
19112;BME280;9688;51.906;8.376;2024-01-30T02:36:35;101872.09;;;6.71;100.00
19112;BME280;9688;51.906;8.376;2024-01-30T02:39:22;101864.19;;;6.73;100.00
19112;BME280;9688;51.906;8.376;2024-01-30T02:42:08;101868.56;;;6.75;100.00
19112;BME280;9688;51.906;8.376;2024-01-30T02:44:53;101866.81;;;6.77;100.00
19112;BME280;9688;51.906;8.376;2024-01-30T02:47:39;101858.91;;;6.79;100.00
19112;BME280;9688;51.906;8.376;2024-01-30T02:50:24;101858.91;;;6.79;100.00
19112;BME280;9688;51.906;8.376;2024-01-30T02:53:10;101858.91;;;6.80;100.00
19112;BME280;9688;51.906;8.376;2024-01-30T02:55:56;101846.66;;;6.79;100.00
19112;BME280;9688;51.906;8.376;2024-01-30T02:58:42;101851.03;;;6.80;100.00
19112;BME280;9688;51.906;8.376;2024-01-30T03:01:27;101841.38;;;6.81;100.00
19112;BME280;9688;51.906;8.376;2024-01-30T03:04:13;101841.38;;;6.82;100.00
19112;BME280;9688;51.906;8.376;2024-01-30T03:06:58;101837.00;;;6.81;100.00
19112;BME280;9688;51.906;8.376;2024-01-30T03:09:43;101834.38;;;6.83;100.00
19112;BME280;9688;51.906;8.376;2024-01-30T03:12:30;101836.13;;;6.84;100.00
19112;BME280;9688;51.906;8.376;2024-01-30T03:15:15;101841.38;;;6.85;100.00
19112;BME280;9688;51.906;8.376;2024-01-30T03:18:01;101837.00;;;6.87;100.00
19112;BME280;9688;51.906;8.376;2024-01-30T03:20:47;101829.97;;;6.88;100.00
19112;BME280;9688;51.906;8.376;2024-01-30T03:23:33;101818.56;;;6.89;100.00
19112;BME280;9688;51.906;8.376;2024-01-30T03:26:18;101821.19;;;6.89;100.00
19112;BME280;9688;51.906;8.376;2024-01-30T03:29:05;101824.72;;;6.91;100.00
19112;BME280;9688;51.906;8.376;2024-01-30T03:31:50;101814.19;;;6.91;100.00
19112;BME280;9688;51.906;8.376;2024-01-30T03:34:35;101817.69;;;6.91;100.00
19112;BME280;9688;51.906;8.376;2024-01-30T03:37:20;101815.94;;;6.92;100.00
19112;BME280;9688;51.906;8.376;2024-01-30T03:40:07;101810.69;;;6.93;100.00
19112;BME280;9688;51.906;8.376;2024-01-30T03:42:52;101810.66;;;6.95;100.00
19112;BME280;9688;51.906;8.376;2024-01-30T03:45:39;101808.03;;;6.95;100.00
19112;BME280;9688;51.906;8.376;2024-01-30T03:48:24;101805.41;;;6.97;100.00
19112;BME280;9688;51.906;8.376;2024-01-30T03:51:09;101800.13;;;6.98;100.00
19112;BME280;9688;51.906;8.376;2024-01-30T03:53:58;101807.16;;;6.99;100.00
19112;BME280;9688;51.906;8.376;2024-01-30T03:56:43;101803.63;;;7.00;100.00
19112;BME280;9688;51.906;8.376;2024-01-30T03:59:29;101797.50;;;7.01;100.00
19112;BME280;9688;51.906;8.376;2024-01-30T04:02:15;101794.88;;;7.01;100.00
19112;BME280;9688;51.906;8.376;2024-01-30T04:05:02;101793.13;;;7.02;100.00
19112;BME280;9688;51.906;8.376;2024-01-30T04:07:47;101793.97;;;7.01;100.00
19112;BME280;9688;51.906;8.376;2024-01-30T04:10:32;101794.88;;;6.98;100.00
19112;BME280;9688;51.906;8.376;2024-01-30T04:13:18;101797.50;;;6.98;100.00
19112;BME280;9688;51.906;8.376;2024-01-30T04:16:04;101794.88;;;7.00;100.00
19112;BME280;9688;51.906;8.376;2024-01-30T04:18:51;101793.13;;;7.02;100.00
19112;BME280;9688;51.906;8.376;2024-01-30T04:21:36;101790.47;;;7.00;100.00
19112;BME280;9688;51.906;8.376;2024-01-30T04:24:22;101786.09;;;7.01;100.00
19112;BME280;9688;51.906;8.376;2024-01-30T04:27:07;101788.75;;;6.99;100.00
19112;BME280;9688;51.906;8.376;2024-01-30T04:29:52;101781.72;;;7.00;100.00
19112;BME280;9688;51.906;8.376;2024-01-30T04:32:37;101781.72;;;6.98;100.00
19112;BME280;9688;51.906;8.376;2024-01-30T04:35:24;101788.75;;;6.96;100.00
19112;BME280;9688;51.906;8.376;2024-01-30T04:38:10;101793.16;;;6.94;100.00
19112;BME280;9688;51.906;8.376;2024-01-30T04:40:55;101790.53;;;6.96;100.00
19112;BME280;9688;51.906;8.376;2024-01-30T04:43:41;101794.91;;;6.97;100.00
19112;BME280;9688;51.906;8.376;2024-01-30T04:46:26;101790.50;;;6.99;100.00
19112;BME280;9688;51.906;8.376;2024-01-30T04:49:12;101790.50;;;6.99;100.00
19112;BME280;9688;51.906;8.376;2024-01-30T04:51:58;101789.63;;;7.00;100.00
19112;BME280;9688;51.906;8.376;2024-01-30T04:54:43;101794.88;;;7.01;100.00
19112;BME280;9688;51.906;8.376;2024-01-30T04:57:29;101787.88;;;7.02;100.00
19112;BME280;9688;51.906;8.376;2024-01-30T05:00:15;101788.72;;;7.01;100.00
19112;BME280;9688;51.906;8.376;2024-01-30T05:03:00;101793.13;;;6.99;100.00
19112;BME280;9688;51.906;8.376;2024-01-30T05:05:46;101790.50;;;6.99;100.00
19112;BME280;9688;51.906;8.376;2024-01-30T05:08:32;101791.38;;;6.99;100.00
19112;BME280;9688;51.906;8.376;2024-01-30T05:11:20;101783.50;;;6.99;100.00
19112;BME280;9688;51.906;8.376;2024-01-30T05:14:05;101787.88;;;6.99;100.00
19112;BME280;9688;51.906;8.376;2024-01-30T05:16:51;101785.25;;;6.99;100.00
19112;BME280;9688;51.906;8.376;2024-01-30T05:19:36;101785.25;;;6.97;100.00
19112;BME280;9688;51.906;8.376;2024-01-30T05:22:21;101779.13;;;6.93;100.00
19112;BME280;9688;51.906;8.376;2024-01-30T05:25:08;101780.88;;;6.90;100.00
19112;BME280;9688;51.906;8.376;2024-01-30T05:27:54;101780.91;;;6.88;100.00
19112;BME280;9688;51.906;8.376;2024-01-30T05:30:39;101783.50;;;6.90;100.00
19112;BME280;9688;51.906;8.376;2024-01-30T05:33:25;101782.66;;;6.91;100.00
19112;BME280;9688;51.906;8.376;2024-01-30T05:36:11;101779.13;;;6.92;100.00
19112;BME280;9688;51.906;8.376;2024-01-30T05:38:57;101784.41;;;6.93;100.00
19112;BME280;9688;51.906;8.376;2024-01-30T05:41:43;101777.38;;;6.96;100.00
19112;BME280;9688;51.906;8.376;2024-01-30T05:44:29;101774.72;;;6.97;100.00
19112;BME280;9688;51.906;8.376;2024-01-30T05:47:15;101773.84;;;6.98;100.00
19112;BME280;9688;51.906;8.376;2024-01-30T05:50:00;101779.09;;;7.00;100.00
19112;BME280;9688;51.906;8.376;2024-01-30T05:52:46;101775.59;;;6.99;100.00
19112;BME280;9688;51.906;8.376;2024-01-30T05:55:31;101783.50;;;6.99;100.00
19112;BME280;9688;51.906;8.376;2024-01-30T05:58:18;101770.34;;;6.98;100.00
19112;BME280;9688;51.906;8.376;2024-01-30T06:01:06;101764.25;;;6.96;100.00
19112;BME280;9688;51.906;8.376;2024-01-30T06:03:52;101770.34;;;6.95;100.00
19112;BME280;9688;51.906;8.376;2024-01-30T06:06:37;101770.38;;;6.96;100.00
19112;BME280;9688;51.906;8.376;2024-01-30T06:09:23;101768.59;;;6.97;100.00
19112;BME280;9688;51.906;8.376;2024-01-30T06:12:08;101772.09;;;6.97;100.00
19112;BME280;9688;51.906;8.376;2024-01-30T06:14:57;101767.75;;;6.96;100.00
19112;BME280;9688;51.906;8.376;2024-01-30T06:17:42;101768.59;;;6.97;100.00
19112;BME280;9688;51.906;8.376;2024-01-30T06:20:27;101772.09;;;6.97;100.00
19112;BME280;9688;51.906;8.376;2024-01-30T06:23:12;101773.00;;;6.96;100.00
19112;BME280;9688;51.906;8.376;2024-01-30T06:25:58;101770.34;;;6.95;100.00
19112;BME280;9688;51.906;8.376;2024-01-30T06:28:44;101761.59;;;6.94;100.00
19112;BME280;9688;51.906;8.376;2024-01-30T06:31:31;101768.59;;;6.95;100.00
19112;BME280;9688;51.906;8.376;2024-01-30T06:34:16;101758.97;;;6.96;100.00
19112;BME280;9688;51.906;8.376;2024-01-30T06:37:01;101766.88;;;6.96;100.00
19112;BME280;9688;51.906;8.376;2024-01-30T06:39:47;101764.22;;;6.97;100.00
19112;BME280;9688;51.906;8.376;2024-01-30T06:42:32;101761.63;;;6.96;100.00
19112;BME280;9688;51.906;8.376;2024-01-30T06:45:17;101761.59;;;6.97;100.00
19112;BME280;9688;51.906;8.376;2024-01-30T06:48:05;101756.31;;;6.97;100.00
19112;BME280;9688;51.906;8.376;2024-01-30T06:50:53;101765.06;;;7.01;100.00
19112;BME280;9688;51.906;8.376;2024-01-30T06:53:39;101764.19;;;7.02;100.00
19112;BME280;9688;51.906;8.376;2024-01-30T06:56:24;101773.81;;;7.06;100.00
19112;BME280;9688;51.906;8.376;2024-01-30T06:59:09;101764.13;;;7.09;100.00
19112;BME280;9688;51.906;8.376;2024-01-30T07:01:54;101763.25;;;7.13;100.00
19112;BME280;9688;51.906;8.376;2024-01-30T07:04:41;101761.47;;;7.17;100.00
19112;BME280;9688;51.906;8.376;2024-01-30T07:07:27;101765.84;;;7.21;100.00
19112;BME280;9688;51.906;8.376;2024-01-30T07:10:13;101764.06;;;7.26;100.00
19112;BME280;9688;51.906;8.376;2024-01-30T07:13:00;101757.88;;;7.30;100.00
19112;BME280;9688;51.906;8.376;2024-01-30T07:15:45;101766.63;;;7.34;100.00
19112;BME280;9688;51.906;8.376;2024-01-30T07:18:30;101769.25;;;7.35;100.00
19112;BME280;9688;51.906;8.376;2024-01-30T07:21:17;101760.47;;;7.38;100.00
19112;BME280;9688;51.906;8.376;2024-01-30T07:24:03;101766.56;;;7.42;100.00
19112;BME280;9688;51.906;8.376;2024-01-30T07:26:48;101767.41;;;7.45;100.00
19112;BME280;9688;51.906;8.376;2024-01-30T07:29:34;101773.56;;;7.47;100.00
19112;BME280;9688;51.906;8.376;2024-01-30T07:32:19;101766.53;;;7.49;100.00
19112;BME280;9688;51.906;8.376;2024-01-30T07:35:07;101759.47;;;7.54;100.00
19112;BME280;9688;51.906;8.376;2024-01-30T07:37:53;101769.94;;;7.59;100.00
19112;BME280;9688;51.906;8.376;2024-01-30T07:40:39;101772.56;;;7.64;100.00
19112;BME280;9688;51.906;8.376;2024-01-30T07:43:25;101771.66;;;7.66;100.00
19112;BME280;9688;51.906;8.376;2024-01-30T07:49:46;101774.25;;;7.74;100.00
19112;BME280;9688;51.906;8.376;2024-01-30T07:52:32;101775.94;;;7.79;100.00
19112;BME280;9688;51.906;8.376;2024-01-30T07:55:20;101769.75;;;7.83;100.00
19112;BME280;9688;51.906;8.376;2024-01-30T07:58:08;101775.88;;;7.89;100.00
19112;BME280;9688;51.906;8.376;2024-01-30T08:00:54;101777.56;;;7.94;100.00
19112;BME280;9688;51.906;8.376;2024-01-30T08:03:42;101773.13;;;7.99;100.00
19112;BME280;9688;51.906;8.376;2024-01-30T08:06:28;101759.94;;;8.04;100.00
19112;BME280;9688;51.906;8.376;2024-01-30T08:09:14;101755.47;;;8.09;100.00
19112;BME280;9688;51.906;8.376;2024-01-30T08:12:01;101758.06;;;8.14;100.00
19112;BME280;9688;51.906;8.376;2024-01-30T08:14:47;101766.81;;;8.20;100.00
19112;BME280;9688;51.906;8.376;2024-01-30T08:17:33;101758.81;;;8.26;100.00
19112;BME280;9688;51.906;8.376;2024-01-30T08:20:19;101758.75;;;8.34;100.00
19112;BME280;9688;51.906;8.376;2024-01-30T08:23:04;101762.22;;;8.41;100.00
19112;BME280;9688;51.906;8.376;2024-01-30T08:25:50;101762.13;;;8.48;100.00
19112;BME280;9688;51.906;8.376;2024-01-30T08:28:37;101767.28;;;8.58;100.00
19112;BME280;9688;51.906;8.376;2024-01-30T08:31:23;101770.72;;;8.66;100.00
19112;BME280;9688;51.906;8.376;2024-01-30T08:34:08;101779.38;;;8.76;100.00
19112;BME280;9688;51.906;8.376;2024-01-30T08:36:54;101781.81;;;8.89;100.00
19112;BME280;9688;51.906;8.376;2024-01-30T08:39:40;101780.81;;;9.00;100.00
19112;BME280;9688;51.906;8.376;2024-01-30T08:42:26;101779.81;;;9.10;100.00
19112;BME280;9688;51.906;8.376;2024-01-30T08:45:13;101776.19;;;9.17;100.00
19112;BME280;9688;51.906;8.376;2024-01-30T08:47:59;101785.78;;;9.23;100.00
19112;BME280;9688;51.906;8.376;2024-01-30T08:50:46;101776.09;;;9.25;100.00
19112;BME280;9688;51.906;8.376;2024-01-30T08:53:31;101783.03;;;9.32;100.00
19112;BME280;9688;51.906;8.376;2024-01-30T08:56:17;101776.78;;;9.37;100.00
19112;BME280;9688;51.906;8.376;2024-01-30T08:59:02;101781.97;;;9.45;100.00
19112;BME280;9688;51.906;8.376;2024-01-30T09:01:49;101783.59;;;9.54;100.00
19112;BME280;9688;51.906;8.376;2024-01-30T09:04:37;101788.66;;;9.66;100.00
19112;BME280;9688;51.906;8.376;2024-01-30T09:07:23;101786.72;;;9.77;100.00
19112;BME280;9688;51.906;8.376;2024-01-30T09:10:09;101779.47;;;9.89;100.00
19112;BME280;9688;51.906;8.376;2024-01-30T09:12:55;101787.22;;;9.99;100.00
19112;BME280;9688;51.906;8.376;2024-01-30T09:15:41;101774.75;;;10.08;100.00
19112;BME280;9688;51.906;8.376;2024-01-30T09:18:28;101779.84;;;10.20;100.00
19112;BME280;9688;51.906;8.376;2024-01-30T09:21:17;101788.50;;;10.28;100.00
19112;BME280;9688;51.906;8.376;2024-01-30T09:24:03;101785.66;;;10.39;100.00
19112;BME280;9688;51.906;8.376;2024-01-30T09:26:49;101784.66;;;10.46;100.00
19112;BME280;9688;51.906;8.376;2024-01-30T09:29:34;101784.47;;;10.57;100.00
19112;BME280;9688;51.906;8.376;2024-01-30T09:32:22;101786.91;;;10.67;100.00
19112;BME280;9688;51.906;8.376;2024-01-30T09:35:10;101782.34;;;10.74;100.00
19112;BME280;9688;51.906;8.376;2024-01-30T09:37:55;101791.84;;;10.83;100.00
19112;BME280;9688;51.906;8.376;2024-01-30T09:40:41;101786.41;;;10.90;100.00
19112;BME280;9688;51.906;8.376;2024-01-30T09:43:30;101791.53;;;10.98;100.00
19112;BME280;9688;51.906;8.376;2024-01-30T09:46:19;101784.34;;;11.05;100.00
19112;BME280;9688;51.906;8.376;2024-01-30T09:49:08;101785.13;;;11.08;100.00
19112;BME280;9688;51.906;8.376;2024-01-30T09:51:55;101786.81;;;11.12;100.00
19112;BME280;9688;51.906;8.376;2024-01-30T09:54:41;101785.84;;;11.16;100.00
19112;BME280;9688;51.906;8.376;2024-01-30T09:57:27;101783.97;;;11.22;100.00
19112;BME280;9688;51.906;8.376;2024-01-30T10:00:13;101790.94;;;11.26;100.00
19112;BME280;9688;51.906;8.376;2024-01-30T10:03:02;101785.59;;;11.27;100.00
19112;BME280;9688;51.906;8.376;2024-01-30T10:05:51;101793.53;;;11.29;100.00
19112;BME280;9688;51.906;8.376;2024-01-30T10:08:39;101791.66;;;11.32;100.00
19112;BME280;9688;51.906;8.376;2024-01-30T10:11:26;101787.16;;;11.37;100.00
19112;BME280;9688;51.906;8.376;2024-01-30T10:14:11;101787.78;;;11.47;100.00
19112;BME280;9688;51.906;8.376;2024-01-30T10:16:57;101789.47;;;11.51;100.00
19112;BME280;9688;51.906;8.376;2024-01-30T10:19:43;101796.47;;;11.54;100.00
19112;BME280;9688;51.906;8.376;2024-01-30T10:22:29;101795.56;;;11.55;100.00
19112;BME280;9688;51.906;8.376;2024-01-30T10:25:17;101807.00;;;11.57;100.00
19112;BME280;9688;51.906;8.376;2024-01-30T10:32:22;101800.44;;;11.72;100.00
19112;BME280;9688;51.906;8.376;2024-01-30T10:35:08;101807.34;;;11.79;100.00
19112;BME280;9688;51.906;8.376;2024-01-30T10:37:56;101803.63;;;11.88;100.00
19112;BME280;9688;51.906;8.376;2024-01-30T10:40:44;101789.38;;;11.93;100.00
19112;BME280;9688;51.906;8.376;2024-01-30T10:43:31;101781.25;;;11.99;100.00
19112;BME280;9688;51.906;8.376;2024-01-30T10:46:19;101788.16;;;12.07;100.00
19112;BME280;9688;51.906;8.376;2024-01-30T10:49:06;101787.06;;;12.14;99.64
19112;BME280;9688;51.906;8.376;2024-01-30T10:51:52;101777.94;;;12.25;99.43
19112;BME280;9688;51.906;8.376;2024-01-30T10:54:40;101783.91;;;12.34;98.68
19112;BME280;9688;51.906;8.376;2024-01-30T10:57:27;101771.22;;;12.45;98.54
19112;BME280;9688;51.906;8.376;2024-01-30T11:00:14;101770.91;;;12.56;98.14
19112;BME280;9688;51.906;8.376;2024-01-30T11:03:00;101775.13;;;12.63;98.05
19112;BME280;9688;51.906;8.376;2024-01-30T11:05:49;101765.22;;;12.69;97.95
19112;BME280;9688;51.906;8.376;2024-01-30T11:08:35;101769.47;;;12.75;97.52
19112;BME280;9688;51.906;8.376;2024-01-30T11:11:20;101767.50;;;12.82;97.13
19112;BME280;9688;51.906;8.376;2024-01-30T11:14:09;101764.63;;;12.89;96.90
19112;BME280;9688;51.906;8.376;2024-01-30T11:16:57;101764.47;;;12.94;96.81
19112;BME280;9688;51.906;8.376;2024-01-30T11:19:42;101761.75;;;12.97;96.94
19112;BME280;9688;51.906;8.376;2024-01-30T11:22:30;101769.63;;;13.00;96.57
19112;BME280;9688;51.906;8.376;2024-01-30T11:25:17;101774.78;;;13.05;96.28
19112;BME280;9688;51.906;8.376;2024-01-30T11:28:03;101770.25;;;13.08;96.32
19112;BME280;9688;51.906;8.376;2024-01-30T11:30:50;101777.94;;;13.17;96.07
19112;BME280;9688;51.906;8.376;2024-01-30T11:33:36;101781.25;;;13.26;95.92
19112;BME280;9688;51.906;8.376;2024-01-30T11:36:25;101772.22;;;13.31;95.32
19112;BME280;9688;51.906;8.376;2024-01-30T11:39:11;101772.13;;;13.34;95.57
19112;BME280;9688;51.906;8.376;2024-01-30T11:41:59;101776.38;;;13.40;95.53
19112;BME280;9688;51.906;8.376;2024-01-30T11:44:46;101768.22;;;13.46;95.21
19112;BME280;9688;51.906;8.376;2024-01-30T11:47:35;101764.50;;;13.52;95.32
19112;BME280;9688;51.906;8.376;2024-01-30T11:50:20;101764.09;;;13.64;94.65
19112;BME280;9688;51.906;8.376;2024-01-30T11:53:06;101761.34;;;13.67;94.47
19112;BME280;9688;51.906;8.376;2024-01-30T11:55:52;101761.38;;;13.66;94.31
19112;BME280;9688;51.906;8.376;2024-01-30T11:58:42;101756.91;;;13.68;94.20
19112;BME280;9688;51.906;8.376;2024-01-30T12:01:28;101759.56;;;13.68;94.49
19112;BME280;9688;51.906;8.376;2024-01-30T12:04:15;101763.91;;;13.70;93.91
19112;BME280;9688;51.906;8.376;2024-01-30T12:07:01;101769.94;;;13.75;93.74
19112;BME280;9688;51.906;8.376;2024-01-30T12:09:52;101762.69;;;13.80;93.87
19112;BME280;9688;51.906;8.376;2024-01-30T12:12:38;101765.22;;;13.83;93.51
19112;BME280;9688;51.906;8.376;2024-01-30T12:15:26;101765.16;;;13.85;93.42
19112;BME280;9688;51.906;8.376;2024-01-30T12:18:12;101758.94;;;13.86;93.63
19112;BME280;9688;51.906;8.376;2024-01-30T12:21:00;101763.22;;;13.90;93.53
19112;BME280;9688;51.906;8.376;2024-01-30T12:23:46;101769.38;;;13.92;93.19
19112;BME280;9688;51.906;8.376;2024-01-30T12:26:31;101769.25;;;13.95;92.93
19112;BME280;9688;51.906;8.376;2024-01-30T12:29:17;101762.97;;;13.98;93.33
19112;BME280;9688;51.906;8.376;2024-01-30T12:32:05;101770.63;;;14.07;92.90
19112;BME280;9688;51.906;8.376;2024-01-30T12:34:55;101767.84;;;14.10;93.00
19112;BME280;9688;51.906;8.376;2024-01-30T12:37:43;101766.84;;;14.14;92.73
19112;BME280;9688;51.906;8.376;2024-01-30T12:40:29;101776.44;;;14.18;92.66
19112;BME280;9688;51.906;8.376;2024-01-30T12:43:14;101783.63;;;14.16;92.79
19112;BME280;9688;51.906;8.376;2024-01-30T12:46:00;101783.50;;;14.19;92.97
19112;BME280;9688;51.906;8.376;2024-01-30T12:48:46;101771.00;;;14.21;92.94
19112;BME280;9688;51.906;8.376;2024-01-30T12:51:34;101777.09;;;14.25;92.63
19112;BME280;9688;51.906;8.376;2024-01-30T12:54:22;101769.88;;;14.28;92.97
19112;BME280;9688;51.906;8.376;2024-01-30T12:57:08;101781.44;;;14.27;92.92
19112;BME280;9688;51.906;8.376;2024-01-30T12:59:53;101775.16;;;14.30;92.80
19112;BME280;9688;51.906;8.376;2024-01-30T13:02:39;101781.06;;;14.38;92.77
19112;BME280;9688;51.906;8.376;2024-01-30T13:05:26;101769.44;;;14.41;92.68
19112;BME280;9688;51.906;8.376;2024-01-30T13:08:12;101778.31;;;14.41;92.65
19112;BME280;9688;51.906;8.376;2024-01-30T13:10:59;101768.53;;;14.42;92.81
19112;BME280;9688;51.906;8.376;2024-01-30T13:13:44;101773.78;;;14.43;93.01
19112;BME280;9688;51.906;8.376;2024-01-30T13:16:29;101773.84;;;14.42;93.08
19112;BME280;9688;51.906;8.376;2024-01-30T13:19:15;101778.34;;;14.40;93.33
19112;BME280;9688;51.906;8.376;2024-01-30T13:22:00;101773.19;;;14.35;93.48
19112;BME280;9688;51.906;8.376;2024-01-30T13:24:46;101777.81;;;14.30;93.68
19112;BME280;9688;51.906;8.376;2024-01-30T13:27:32;101763.72;;;14.26;93.78
19112;BME280;9688;51.906;8.376;2024-01-30T13:30:18;101769.13;;;14.25;93.49
19112;BME280;9688;51.906;8.376;2024-01-30T13:33:04;101773.59;;;14.24;94.02
19112;BME280;9688;51.906;8.376;2024-01-30T13:35:50;101777.03;;;14.26;94.18
19112;BME280;9688;51.906;8.376;2024-01-30T13:38:35;101775.94;;;14.32;94.19
19112;BME280;9688;51.906;8.376;2024-01-30T13:41:21;101770.59;;;14.34;94.17
19112;BME280;9688;51.906;8.376;2024-01-30T13:44:08;101767.19;;;14.30;94.32
19112;BME280;9688;51.906;8.376;2024-01-30T13:46:54;101769.91;;;14.27;95.04
19112;BME280;9688;51.906;8.376;2024-01-30T13:49:40;101776.16;;;14.26;95.43
19112;BME280;9688;51.906;8.376;2024-01-30T13:52:26;101762.88;;;14.26;95.50
19112;BME280;9688;51.906;8.376;2024-01-30T13:55:13;101761.94;;;14.27;95.58
19112;BME280;9688;51.906;8.376;2024-01-30T13:57:58;101753.97;;;14.27;96.29
19112;BME280;9688;51.906;8.376;2024-01-30T14:00:47;101754.97;;;14.24;96.45
19112;BME280;9688;51.906;8.376;2024-01-30T14:03:33;101770.13;;;14.21;96.65
19112;BME280;9688;51.906;8.376;2024-01-30T14:06:19;101772.03;;;14.17;97.06
19112;BME280;9688;51.906;8.376;2024-01-30T14:09:04;101774.72;;;14.17;97.10
19112;BME280;9688;51.906;8.376;2024-01-30T14:11:52;101777.41;;;14.16;97.48
19112;BME280;9688;51.906;8.376;2024-01-30T14:14:40;101788.03;;;14.16;97.54
19112;BME280;9688;51.906;8.376;2024-01-30T14:17:27;101783.78;;;14.12;97.85
19112;BME280;9688;51.906;8.376;2024-01-30T14:20:12;101782.03;;;14.11;98.02
19112;BME280;9688;51.906;8.376;2024-01-30T14:22:58;101790.09;;;14.07;97.84
19112;BME280;9688;51.906;8.376;2024-01-30T14:25:44;101792.06;;;14.02;98.32
19112;BME280;9688;51.906;8.376;2024-01-30T14:28:29;101791.28;;;13.99;98.44
19112;BME280;9688;51.906;8.376;2024-01-30T14:31:15;101792.25;;;13.96;98.66
19112;BME280;9688;51.906;8.376;2024-01-30T14:34:04;101780.81;;;13.94;98.68
19112;BME280;9688;51.906;8.376;2024-01-30T14:36:49;101787.03;;;13.93;99.00
19112;BME280;9688;51.906;8.376;2024-01-30T14:39:36;101782.81;;;13.88;98.93
19112;BME280;9688;51.906;8.376;2024-01-30T14:42:21;101793.53;;;13.84;99.13
19112;BME280;9688;51.906;8.376;2024-01-30T14:45:06;101790.03;;;13.84;99.56
19112;BME280;9688;51.906;8.376;2024-01-30T14:47:52;101794.47;;;13.83;99.42
19112;BME280;9688;51.906;8.376;2024-01-30T14:50:41;101788.19;;;13.86;99.54
19112;BME280;9688;51.906;8.376;2024-01-30T14:53:26;101787.22;;;13.89;99.47